• Join FlightAware (Why Join?)
  • Login
  • US Flag 
01:24AM EDT


 

Airport Tracker/Info


-or-


 

Live Flight TrackerFlight Track Log ✈ UAL3740 ✈ 04-May-2013 ✈ KPVD - KIAD

Flight Track Log - Related Links

Times and Time Zones

All times are in EDT time to prevent confusion due to time zone crossing. See the UAL3740 flight status page for this flight to view local times or setup timezone preferences in your user account.

Time Position Orientation Groundspeed Altitude Reporting Facility
EDT Latitude Longitude Course Direction KTS MPH feet Rate Location/Type
10:17AM 41.8358 -71.5067 330° Northwest 249 287 5,500  Level Boston Center
10:18AM 41.8700 -71.6008 296° West 272 313 8,500 2,700 Climbing Boston Center
10:19AM 41.9019 -71.6925 295° West 298 343 10,900 2,100 Climbing Boston Center
10:20AM 41.9028 -71.8236 271° West 317 365 12,700 1,860 Climbing Boston Center
10:21AM 41.8783 -71.9467 255° West 355 409 14,700 2,100 Climbing Boston Center
10:22AM 41.8497 -72.0944 255° West 373 429 16,900 1,800 Climbing Boston Center
10:23AM 41.8250 -72.2200 255° West 385 443 18,400 1,500 Climbing Boston Center
10:24AM 41.7981 -72.3650 256° West 390 449 20,000 1,500 Climbing Boston Center
10:25AM 41.7647 -72.5264 255° West 401 461 21,500 1,500 Climbing Boston Center
10:26AM 41.7375 -72.6822 257° West 414 476 23,000 1,380 Climbing Boston Center
10:27AM 41.6911 -72.8319 248° West 426 490 24,300 1,200 Climbing Boston Center
10:28AM 41.6281 -72.9817 241° Southwest 443 510 25,400 1,260 Climbing Boston Center
10:29AM 41.5647 -73.1253 240° Southwest 453 521 26,900 1,260 Climbing Boston Center
10:30AM 41.5097 -73.2550 241° Southwest 458 527 28,000 960 Climbing Boston Center
10:31AM 41.4481 -73.4039 241° Southwest 463 533 28,900 1,140 Climbing Boston Center
10:32AM 41.3411 -73.6478 240° Southwest 473 544 31,000 1,200 Climbing New York Center
10:33AM 41.2792 -73.7914 240° Southwest 468 539 32,000 480 Climbing New York Center
10:34AM 41.2128 -73.9400 239° Southwest 462 532 32,000 -120 Level New York Center
10:35AM 41.1461 -74.0939 240° Southwest 470 541 31,800 -900 Descending New York Center
10:36AM 41.0775 -74.2311 236° Southwest 485 558 30,200 -1,740 Descending New York Center
10:37AM 41.0042 -74.3839 238° Southwest 495 570 28,400 -1,140 Descending New York Center
10:38AM 40.9331 -74.5311 237° Southwest 489 563 28,000 -240 Descending New York Center
10:39AM 40.8761 -74.6817 243° Southwest 479 551 28,000  Level New York Center
10:40AM 40.8292 -74.8381 248° West 467 537 28,000  Level New York Center
10:41AM 40.7797 -74.9942 247° West 462 532 28,000  Level New York Center
10:42AM 40.7117 -75.1458 239° Southwest 472 543 28,000 -120 Level New York Center
10:43AM 40.6356 -75.2914 235° Southwest 477 549 27,800 -1,200 Descending New York Center
10:44AM 40.5608 -75.4394 236° Southwest 487 560 25,600 -2,280 Descending New York Center
10:45AM 40.4883 -75.5875 237° Southwest 487 560 23,400 -2,220 Descending New York Center
10:46AM 40.4158 -75.7242 235° Southwest 487 560 21,200 -1,740 Descending New York Center
10:47AM 40.3433 -75.8633 236° Southwest 475 547 20,000 -660 Descending New York Center
10:48AM 40.2617 -76.0122 234° Southwest 475 547 20,000 -180 Level New York Center
10:49AM 40.1931 -76.1514 237° Southwest 470 541 19,700 -1,020 Descending New York Center
10:50AM 40.1311 -76.2714 236° Southwest 456 525 18,000 -1,620 Descending New York Center
10:52AM 40.0000 -76.5500 239° Southwest 434 499 15,000 -1,020 Descending Potomac TRACON
10:53AM 39.9333 -76.6833 237° Southwest 425 489 15,000  Level Potomac TRACON
10:54AM 39.8833 -76.8000 241° Southwest 419 482 15,000 -660 Level Potomac TRACON
10:55AM 39.8167 -76.9333 237° Southwest 414 476 13,700 -1,560 Descending Potomac TRACON
10:56AM 39.7667 -77.0667 244° Southwest 401 461 11,900 -1,800 Descending Potomac TRACON
10:57AM 39.7000 -77.1833 233° Southwest 388 447 10,100 -960 Descending Potomac TRACON
10:58AM 39.6500 -77.3000 241° Southwest 385 443 10,000 -120 Descending Potomac TRACON
10:59AM 39.5667 -77.3667 212° Southwest 324 373 9,900 -900 Descending Potomac TRACON
11:00AM 39.5000 -77.4333 218° Southwest 288 331 8,200 -1,800 Descending Potomac TRACON
11:01AM 39.4333 -77.4500 191° South 274 315 6,400 -1,140 Descending Potomac TRACON
11:02AM 39.3500 -77.4500 180° South 264 304 6,000 -480 Descending Potomac TRACON
11:03AM 39.2833 -77.4500 180° South 259 298 5,500 -1,020 Descending Potomac TRACON
11:04AM 39.2167 -77.4500 180° South 255 293 4,000 -900 Descending Potomac TRACON
11:05AM 39.1500 -77.4667 191° South 232 267 3,800 -720 Descending Potomac TRACON
11:06AM 39.0833 -77.4500 169° South 221 254 2,600 -1,200 Descending Potomac TRACON
11:07AM 39.0333 -77.4667 195° South 186 214 1,500 -960 Descending Potomac TRACON
11:08AM 38.9833 -77.4667 180° South 142 163 700 -840 Descending Potomac TRACON
11:10AM 38.9474 -77.4599 180° South  Level Estimated
11:17AM 38.9474 -77.4599 349° North  Level Estimated
11:18AM 38.9474 -77.4599 349° North  Level Estimated
11:19AM 38.9474 -77.4599 349° North  Level Estimated
11:20AM 38.9474 -77.4599 349° North  Level Estimated